sensor_id;sensor_type;location;lat;lon;timestamp;pressure;altitude;pressure_sealevel;temperature;humidity
24996;BME280;13016;52.162;21.034;2023-07-20T00:05:10;99605.52;;;23.36;43.22
24996;BME280;13016;52.162;21.034;2023-07-20T00:11:11;99593.68;;;23.40;43.26
24996;BME280;13016;52.162;21.034;2023-07-20T00:17:11;99586.70;;;23.39;43.37
24996;BME280;13016;52.162;21.034;2023-07-20T00:23:11;99587.64;;;23.30;43.80
24996;BME280;13016;52.162;21.034;2023-07-20T00:29:12;99581.22;;;23.30;43.89
24996;BME280;13016;52.162;21.034;2023-07-20T00:35:12;99582.40;;;23.29;43.94
24996;BME280;13016;52.162;21.034;2023-07-20T00:41:13;99588.85;;;23.25;44.13
24996;BME280;13016;52.162;21.034;2023-07-20T00:47:13;99596.95;;;23.26;44.10
24996;BME280;13016;52.162;21.034;2023-07-20T00:53:13;99593.53;;;23.26;43.81
24996;BME280;13016;52.162;21.034;2023-07-20T00:59:14;99591.05;;;23.30;43.72
24996;BME280;13016;52.162;21.034;2023-07-20T01:05:14;99584.66;;;23.34;43.40
24996;BME280;13016;52.162;21.034;2023-07-20T01:11:40;99589.05;;;23.37;43.30
24996;BME280;13016;52.162;21.034;2023-07-20T01:17:41;99595.23;;;23.45;42.84
24996;BME280;13016;52.162;21.034;2023-07-20T01:36:02;99580.02;;;23.58;42.26
24996;BME280;13016;52.162;21.034;2023-07-20T01:42:03;99584.62;;;23.60;42.17
24996;BME280;13016;52.162;21.034;2023-07-20T01:48:04;99600.30;;;23.59;42.25
24996;BME280;13016;52.162;21.034;2023-07-20T01:54:04;99610.60;;;23.53;42.33
24996;BME280;13016;52.162;21.034;2023-07-20T02:00:05;99600.02;;;23.56;42.29
24996;BME280;13016;52.162;21.034;2023-07-20T02:06:05;99614.14;;;23.55;42.26
24996;BME280;13016;52.162;21.034;2023-07-20T02:12:06;99618.89;;;23.47;42.38
24996;BME280;13016;52.162;21.034;2023-07-20T02:18:06;99614.77;;;23.43;42.27
24996;BME280;13016;52.162;21.034;2023-07-20T02:24:06;99606.38;;;23.47;42.30
24996;BME280;13016;52.162;21.034;2023-07-20T02:30:07;99603.10;;;23.47;42.63
24996;BME280;13016;52.162;21.034;2023-07-20T02:36:07;99598.14;;;23.53;42.61
24996;BME280;13016;52.162;21.034;2023-07-20T02:42:07;99594.31;;;23.58;42.44
24996;BME280;13016;52.162;21.034;2023-07-20T02:48:08;99592.27;;;23.54;42.68
24996;BME280;13016;52.162;21.034;2023-07-20T02:54:08;99592.00;;;23.54;42.81
24996;BME280;13016;52.162;21.034;2023-07-20T03:00:09;99603.27;;;23.52;42.93
24996;BME280;13016;52.162;21.034;2023-07-20T03:06:10;99604.12;;;23.53;43.17
24996;BME280;13016;52.162;21.034;2023-07-20T03:12:10;99603.48;;;23.55;42.94
24996;BME280;13016;52.162;21.034;2023-07-20T03:18:10;99600.71;;;23.53;43.05
24996;BME280;13016;52.162;21.034;2023-07-20T03:24:10;99610.76;;;23.53;43.24
24996;BME280;13016;52.162;21.034;2023-07-20T03:30:11;99618.81;;;23.52;43.34
24996;BME280;13016;52.162;21.034;2023-07-20T03:36:11;99619.41;;;23.53;43.42
24996;BME280;13016;52.162;21.034;2023-07-20T03:42:11;99618.83;;;23.62;43.38
24996;BME280;13016;52.162;21.034;2023-07-20T03:48:12;99630.35;;;23.60;43.95
24996;BME280;13016;52.162;21.034;2023-07-20T03:54:12;99660.66;;;23.55;44.22
24996;BME280;13016;52.162;21.034;2023-07-20T04:00:13;99684.62;;;23.50;44.83
24996;BME280;13016;52.162;21.034;2023-07-20T04:06:13;99692.80;;;23.58;44.83
24996;BME280;13016;52.162;21.034;2023-07-20T04:12:13;99691.59;;;23.54;45.08
24996;BME280;13016;52.162;21.034;2023-07-20T04:18:13;99691.15;;;23.58;45.58
24996;BME280;13016;52.162;21.034;2023-07-20T04:24:14;99699.54;;;23.47;46.32
24996;BME280;13016;52.162;21.034;2023-07-20T04:30:17;99733.38;;;23.27;49.51
24996;BME280;13016;52.162;21.034;2023-07-20T04:36:17;99737.70;;;23.08;50.72
24996;BME280;13016;52.162;21.034;2023-07-20T04:42:17;99734.06;;;22.69;52.63
24996;BME280;13016;52.162;21.034;2023-07-20T04:48:18;99736.84;;;22.40;54.36
24996;BME280;13016;52.162;21.034;2023-07-20T04:54:18;99742.68;;;22.45;54.82
24996;BME280;13016;52.162;21.034;2023-07-20T05:00:18;99754.40;;;22.42;54.95
24996;BME280;13016;52.162;21.034;2023-07-20T05:06:28;99759.36;;;22.31;55.64
24996;BME280;13016;52.162;21.034;2023-07-20T05:12:28;99757.56;;;22.35;55.84
24996;BME280;13016;52.162;21.034;2023-07-20T05:18:28;99761.27;;;22.60;54.93
24996;BME280;13016;52.162;21.034;2023-07-20T05:24:30;99766.09;;;22.72;54.52
24996;BME280;13016;52.162;21.034;2023-07-20T05:30:30;99766.52;;;22.87;54.51
24996;BME280;13016;52.162;21.034;2023-07-20T05:43:08;99751.95;;;22.89;54.56
24996;BME280;13016;52.162;21.034;2023-07-20T05:49:09;99748.82;;;23.03;54.64
24996;BME280;13016;52.162;21.034;2023-07-20T05:55:09;99747.31;;;23.19;54.29
24996;BME280;13016;52.162;21.034;2023-07-20T06:01:10;99740.42;;;23.38;53.61
24996;BME280;13016;52.162;21.034;2023-07-20T06:07:10;99742.09;;;23.38;53.10
24996;BME280;13016;52.162;21.034;2023-07-20T06:13:10;99736.75;;;23.33;53.42
24996;BME280;13016;52.162;21.034;2023-07-20T06:19:11;99727.86;;;23.25;53.63
24996;BME280;13016;52.162;21.034;2023-07-20T06:25:11;99727.80;;;23.29;53.29
24996;BME280;13016;52.162;21.034;2023-07-20T06:31:11;99721.11;;;23.20;54.13
24996;BME280;13016;52.162;21.034;2023-07-20T06:37:11;99714.46;;;23.42;53.16
24996;BME280;13016;52.162;21.034;2023-07-20T06:43:12;99714.41;;;23.39;53.39
24996;BME280;13016;52.162;21.034;2023-07-20T06:49:24;99718.84;;;23.58;53.06
24996;BME280;13016;52.162;21.034;2023-07-20T06:55:46;99718.54;;;23.63;53.49
24996;BME280;13016;52.162;21.034;2023-07-20T07:12:56;99713.67;;;24.46;49.69
24996;BME280;13016;52.162;21.034;2023-07-20T07:18:57;99729.21;;;24.13;48.68
24996;BME280;13016;52.162;21.034;2023-07-20T07:24:57;99731.34;;;23.83;49.69
24996;BME280;13016;52.162;21.034;2023-07-20T07:30:58;99734.64;;;23.70;49.99
24996;BME280;13016;52.162;21.034;2023-07-20T07:43:12;99744.48;;;23.49;50.74
24996;BME280;13016;52.162;21.034;2023-07-20T07:49:13;99745.30;;;23.35;51.26
24996;BME280;13016;52.162;21.034;2023-07-20T07:55:13;99757.91;;;23.27;51.87
24996;BME280;13016;52.162;21.034;2023-07-20T08:01:14;99769.45;;;23.22;51.89
24996;BME280;13016;52.162;21.034;2023-07-20T08:13:52;99786.81;;;23.01;51.95
24996;BME280;13016;52.162;21.034;2023-07-20T08:19:55;99787.27;;;22.92;51.59
24996;BME280;13016;52.162;21.034;2023-07-20T08:26:15;99789.48;;;22.88;51.70
24996;BME280;13016;52.162;21.034;2023-07-20T08:32:18;99796.38;;;22.74;52.76
24996;BME280;13016;52.162;21.034;2023-07-20T08:38:22;99812.02;;;22.67;52.91
24996;BME280;13016;52.162;21.034;2023-07-20T08:44:22;99812.58;;;22.67;52.97
24996;BME280;13016;52.162;21.034;2023-07-20T08:50:30;99818.04;;;22.69;53.33
24996;BME280;13016;52.162;21.034;2023-07-20T09:09:41;99834.25;;;22.90;54.08
24996;BME280;13016;52.162;21.034;2023-07-20T09:42:17;99847.03;;;23.33;53.74
24996;BME280;13016;52.162;21.034;2023-07-20T09:48:24;99849.79;;;23.56;52.10
24996;BME280;13016;52.162;21.034;2023-07-20T09:54:28;99845.55;;;23.99;50.36
24996;BME280;13016;52.162;21.034;2023-07-20T10:12:37;99858.17;;;25.76;46.24
24996;BME280;13016;52.162;21.034;2023-07-20T10:18:59;99859.96;;;25.72;45.52
24996;BME280;13016;52.162;21.034;2023-07-20T10:26:14;99850.67;;;25.61;45.87
24996;BME280;13016;52.162;21.034;2023-07-20T10:50:27;99849.80;;;26.02;44.59
24996;BME280;13016;52.162;21.034;2023-07-20T10:56:29;99842.52;;;25.94;44.87
24996;BME280;13016;52.162;21.034;2023-07-20T11:09:23;99836.04;;;25.81;44.64
24996;BME280;13016;52.162;21.034;2023-07-20T11:15:23;99835.87;;;25.60;44.76
24996;BME280;13016;52.162;21.034;2023-07-20T11:21:24;99834.42;;;26.04;43.58
24996;BME280;13016;52.162;21.034;2023-07-20T11:27:52;99832.55;;;26.28;43.07
24996;BME280;13016;52.162;21.034;2023-07-20T11:33:53;99830.66;;;26.38;43.11
24996;BME280;13016;52.162;21.034;2023-07-20T11:39:56;99822.55;;;26.26;43.29
24996;BME280;13016;52.162;21.034;2023-07-20T11:46:00;99820.85;;;26.33;42.92
24996;BME280;13016;52.162;21.034;2023-07-20T11:52:22;99817.51;;;26.42;41.95
24996;BME280;13016;52.162;21.034;2023-07-20T11:58:23;99811.27;;;26.59;41.61
24996;BME280;13016;52.162;21.034;2023-07-20T12:04:26;99813.20;;;26.70;42.12
24996;BME280;13016;52.162;21.034;2023-07-20T12:10:28;99806.05;;;26.96;40.68
24996;BME280;13016;52.162;21.034;2023-07-20T12:22:52;99805.92;;;26.91;40.63
24996;BME280;13016;52.162;21.034;2023-07-20T12:29:07;99805.05;;;26.90;40.77
24996;BME280;13016;52.162;21.034;2023-07-20T12:35:08;99799.88;;;27.07;40.68
24996;BME280;13016;52.162;21.034;2023-07-20T12:41:14;99803.45;;;27.18;40.38
24996;BME280;13016;52.162;21.034;2023-07-20T12:59:36;99801.98;;;28.16;38.24
24996;BME280;13016;52.162;21.034;2023-07-20T13:05:55;99784.46;;;27.81;38.91
24996;BME280;13016;52.162;21.034;2023-07-20T13:12:01;99767.66;;;27.71;39.37
24996;BME280;13016;52.162;21.034;2023-07-20T13:18:02;99759.75;;;27.66;39.72
24996;BME280;13016;52.162;21.034;2023-07-20T13:24:22;99744.25;;;27.69;40.15
24996;BME280;13016;52.162;21.034;2023-07-20T13:30:25;99739.78;;;27.75;40.67
24996;BME280;13016;52.162;21.034;2023-07-20T13:36:25;99756.97;;;27.67;41.10
24996;BME280;13016;52.162;21.034;2023-07-20T13:43:03;99767.23;;;27.79;40.88
24996;BME280;13016;52.162;21.034;2023-07-20T13:49:03;99766.81;;;27.87;40.30
24996;BME280;13016;52.162;21.034;2023-07-20T13:55:06;99764.80;;;27.82;39.95
24996;BME280;13016;52.162;21.034;2023-07-20T14:01:19;99775.58;;;27.60;40.66
24996;BME280;13016;52.162;21.034;2023-07-20T14:13:57;99789.63;;;27.57;39.67
24996;BME280;13016;52.162;21.034;2023-07-20T14:20:03;99789.33;;;27.59;39.50
24996;BME280;13016;52.162;21.034;2023-07-20T14:26:04;99799.23;;;27.42;38.86
24996;BME280;13016;52.162;21.034;2023-07-20T14:32:08;99800.59;;;27.54;38.22
24996;BME280;13016;52.162;21.034;2023-07-20T14:38:15;99801.42;;;27.49;37.98
24996;BME280;13016;52.162;21.034;2023-07-20T14:44:18;99800.54;;;27.48;38.59
24996;BME280;13016;52.162;21.034;2023-07-20T14:50:20;99797.61;;;27.22;39.00
24996;BME280;13016;52.162;21.034;2023-07-20T15:10:27;99778.15;;;27.43;39.58
24996;BME280;13016;52.162;21.034;2023-07-20T15:16:28;99774.95;;;27.19;39.39
24996;BME280;13016;52.162;21.034;2023-07-20T15:22:28;99766.30;;;27.04;39.55
24996;BME280;13016;52.162;21.034;2023-07-20T15:28:30;99767.00;;;26.95;39.81
24996;BME280;13016;52.162;21.034;2023-07-20T15:34:30;99768.95;;;26.79;40.63
24996;BME280;13016;52.162;21.034;2023-07-20T15:40:30;99767.36;;;26.79;40.53
24996;BME280;13016;52.162;21.034;2023-07-20T15:46:44;99773.37;;;26.51;40.97
24996;BME280;13016;52.162;21.034;2023-07-20T15:52:45;99775.20;;;26.42;41.84
24996;BME280;13016;52.162;21.034;2023-07-20T15:58:45;99788.19;;;26.61;41.45
24996;BME280;13016;52.162;21.034;2023-07-20T16:04:45;99803.63;;;26.58;40.54
24996;BME280;13016;52.162;21.034;2023-07-20T16:10:45;99807.13;;;26.66;39.80
24996;BME280;13016;52.162;21.034;2023-07-20T16:16:46;99810.83;;;26.74;39.49
24996;BME280;13016;52.162;21.034;2023-07-20T16:22:46;99814.34;;;26.71;39.09
24996;BME280;13016;52.162;21.034;2023-07-20T16:28:46;99822.77;;;26.69;39.42
24996;BME280;13016;52.162;21.034;2023-07-20T16:34:46;99879.14;;;26.16;38.62
24996;BME280;13016;52.162;21.034;2023-07-20T16:40:47;99893.29;;;24.47;45.63
24996;BME280;13016;52.162;21.034;2023-07-20T16:46:47;99890.30;;;23.05;49.81
24996;BME280;13016;52.162;21.034;2023-07-20T16:52:47;99896.55;;;22.38;52.39
24996;BME280;13016;52.162;21.034;2023-07-20T16:58:47;99854.94;;;22.01;53.73
24996;BME280;13016;52.162;21.034;2023-07-20T17:04:48;99847.98;;;21.93;54.57
24996;BME280;13016;52.162;21.034;2023-07-20T17:10:48;99850.52;;;21.83;55.26
24996;BME280;13016;52.162;21.034;2023-07-20T17:16:49;99844.62;;;21.77;56.05
24996;BME280;13016;52.162;21.034;2023-07-20T17:22:49;99831.48;;;21.71;56.98
24996;BME280;13016;52.162;21.034;2023-07-20T17:28:49;99836.92;;;21.74;57.30
24996;BME280;13016;52.162;21.034;2023-07-20T17:34:49;99842.08;;;21.73;58.95
24996;BME280;13016;52.162;21.034;2023-07-20T17:40:53;99856.77;;;21.88;59.27
24996;BME280;13016;52.162;21.034;2023-07-20T17:46:53;99852.55;;;21.97;59.76
24996;BME280;13016;52.162;21.034;2023-07-20T17:52:53;99852.11;;;22.02;59.79
24996;BME280;13016;52.162;21.034;2023-07-20T17:58:54;99863.60;;;22.11;59.62
24996;BME280;13016;52.162;21.034;2023-07-20T18:04:54;99869.36;;;22.09;59.28
24996;BME280;13016;52.162;21.034;2023-07-20T18:11:02;99870.58;;;22.07;58.98
24996;BME280;13016;52.162;21.034;2023-07-20T18:17:02;99878.92;;;22.09;58.50
24996;BME280;13016;52.162;21.034;2023-07-20T18:23:02;99886.67;;;22.04;58.23
24996;BME280;13016;52.162;21.034;2023-07-20T18:29:03;99890.23;;;21.97;58.31
24996;BME280;13016;52.162;21.034;2023-07-20T18:35:03;99892.27;;;21.90;57.89
24996;BME280;13016;52.162;21.034;2023-07-20T18:41:03;99899.64;;;21.79;58.49
24996;BME280;13016;52.162;21.034;2023-07-20T18:47:04;99896.63;;;21.81;58.78
24996;BME280;13016;52.162;21.034;2023-07-20T18:53:04;99902.87;;;21.70;59.12
24996;BME280;13016;52.162;21.034;2023-07-20T18:59:05;99909.38;;;21.63;59.40
24996;BME280;13016;52.162;21.034;2023-07-20T19:05:05;99917.49;;;21.46;59.85
24996;BME280;13016;52.162;21.034;2023-07-20T19:11:06;99925.17;;;21.41;60.26
24996;BME280;13016;52.162;21.034;2023-07-20T19:17:07;99926.72;;;21.28;60.46
24996;BME280;13016;52.162;21.034;2023-07-20T19:23:07;99937.23;;;21.16;61.16
24996;BME280;13016;52.162;21.034;2023-07-20T19:29:07;99946.66;;;21.05;61.45
24996;BME280;13016;52.162;21.034;2023-07-20T19:35:08;99948.46;;;20.95;61.81
24996;BME280;13016;52.162;21.034;2023-07-20T19:41:08;99950.46;;;20.94;61.99
24996;BME280;13016;52.162;21.034;2023-07-20T19:47:08;99946.91;;;20.88;62.20
24996;BME280;13016;52.162;21.034;2023-07-20T19:53:09;99948.02;;;20.82;62.38
24996;BME280;13016;52.162;21.034;2023-07-20T19:59:09;99950.64;;;20.78;62.77
24996;BME280;13016;52.162;21.034;2023-07-20T20:05:10;99960.44;;;20.63;62.86
24996;BME280;13016;52.162;21.034;2023-07-20T20:11:10;99956.16;;;20.55;63.28
24996;BME280;13016;52.162;21.034;2023-07-20T20:17:10;99950.75;;;20.52;63.43
24996;BME280;13016;52.162;21.034;2023-07-20T20:23:18;99962.70;;;20.49;63.40
24996;BME280;13016;52.162;21.034;2023-07-20T20:29:19;99977.92;;;20.31;63.72
24996;BME280;13016;52.162;21.034;2023-07-20T20:35:19;99976.43;;;19.97;64.72
24996;BME280;13016;52.162;21.034;2023-07-20T20:41:19;99976.33;;;20.03;64.95
24996;BME280;13016;52.162;21.034;2023-07-20T20:47:19;99974.67;;;20.10;64.54
24996;BME280;13016;52.162;21.034;2023-07-20T20:53:20;99983.29;;;20.06;64.37
24996;BME280;13016;52.162;21.034;2023-07-20T20:59:20;99991.45;;;20.00;64.29
24996;BME280;13016;52.162;21.034;2023-07-20T21:05:20;99986.80;;;19.99;64.27
24996;BME280;13016;52.162;21.034;2023-07-20T21:11:20;99986.97;;;19.99;64.08
24996;BME280;13016;52.162;21.034;2023-07-20T21:17:21;99993.91;;;19.89;63.92
24996;BME280;13016;52.162;21.034;2023-07-20T21:23:21;100000.65;;;19.72;63.85
24996;BME280;13016;52.162;21.034;2023-07-20T21:29:21;100004.80;;;19.62;64.15
24996;BME280;13016;52.162;21.034;2023-07-20T21:35:22;100012.63;;;19.68;63.99
24996;BME280;13016;52.162;21.034;2023-07-20T21:41:22;100015.21;;;19.57;63.90
24996;BME280;13016;52.162;21.034;2023-07-20T21:47:22;100015.59;;;19.57;63.81
24996;BME280;13016;52.162;21.034;2023-07-20T21:53:23;100025.89;;;19.53;63.96
24996;BME280;13016;52.162;21.034;2023-07-20T21:59:23;100031.80;;;19.49;64.92
24996;BME280;13016;52.162;21.034;2023-07-20T22:05:24;100037.80;;;19.72;64.48
24996;BME280;13016;52.162;21.034;2023-07-20T22:11:24;100049.73;;;19.86;63.49
24996;BME280;13016;52.162;21.034;2023-07-20T22:17:24;100051.06;;;19.95;62.79
24996;BME280;13016;52.162;21.034;2023-07-20T22:23:25;100051.06;;;20.02;62.14
24996;BME280;13016;52.162;21.034;2023-07-20T22:29:25;100052.63;;;20.16;61.80
24996;BME280;13016;52.162;21.034;2023-07-20T22:35:26;100037.35;;;20.26;61.29
24996;BME280;13016;52.162;21.034;2023-07-20T22:41:26;100032.48;;;20.30;61.02
24996;BME280;13016;52.162;21.034;2023-07-20T22:47:26;100036.15;;;20.31;60.92
24996;BME280;13016;52.162;21.034;2023-07-20T22:53:26;100039.67;;;20.42;60.38
24996;BME280;13016;52.162;21.034;2023-07-20T22:59:26;100027.04;;;20.41;59.80
24996;BME280;13016;52.162;21.034;2023-07-20T23:05:27;100025.84;;;20.42;59.66
24996;BME280;13016;52.162;21.034;2023-07-20T23:11:27;100025.86;;;20.41;59.65
24996;BME280;13016;52.162;21.034;2023-07-20T23:17:27;100025.66;;;20.39;59.65
24996;BME280;13016;52.162;21.034;2023-07-20T23:23:27;100026.60;;;20.27;59.41
24996;BME280;13016;52.162;21.034;2023-07-20T23:29:28;100034.41;;;20.09;59.64
24996;BME280;13016;52.162;21.034;2023-07-20T23:35:28;100037.55;;;19.98;59.79
24996;BME280;13016;52.162;21.034;2023-07-20T23:41:28;100042.77;;;19.73;60.38
24996;BME280;13016;52.162;21.034;2023-07-20T23:47:28;100051.83;;;19.66;61.03
24996;BME280;13016;52.162;21.034;2023-07-20T23:53:29;100046.86;;;19.69;61.13
24996;BME280;13016;52.162;21.034;2023-07-20T23:59:29;100043.63;;;19.74;60.90
